Huntley, Montana
Current Conditions -  °F | °C
As of 6:53 AM on Thursday 23 Oct 2014 (Local Time) from KBIL Reporting Station
Broken Clouds Broken Clouds  
Wind Chill: 51°   Ceiling: 23000
Heat Index: 51°   Visibility: 10mi
Dew Point: 23°   Wind: 7mph
Humidity: 33%   Direction: 230°SW
Pressure: 29.9"   Gusts: NA
Location:  45.9°N, 108.3°W
Report Text: KBIL 231253Z 23006KT 10SM FEW160 BKN230 11/M05 A2990 RMK AO2 SLP118 T01061050
Loading
Personal Weather Stations






























Interactive Weather Map
Tropical Storm Tracking
New forecast layout! Learn more

10-Day Weather Forecast

Advertisements
Track Severe Weather on mobile